createdAt,value
2023-07-10T00:02:02.091Z,100720.12
2023-07-10T00:07:04.459Z,100721.41
2023-07-10T00:12:11.985Z,100719.19
2023-07-10T00:17:16.460Z,100718.03
2023-07-10T00:22:18.616Z,100714.13
2023-07-10T00:27:21.010Z,100725.97
2023-07-10T00:32:23.259Z,100731.78
2023-07-10T00:37:25.428Z,100728.37
2023-07-10T00:42:27.795Z,100735.59
2023-07-10T00:47:39.031Z,100728.56
2023-07-10T00:52:45.229Z,100729.88
2023-07-10T00:57:51.648Z,100721.37
2023-07-10T01:02:53.931Z,100727.31
2023-07-10T01:07:59.451Z,100725.19
2023-07-10T01:13:02.104Z,100734.84
2023-07-10T01:18:06.493Z,100731.59
2023-07-10T01:23:08.928Z,100731.41
2023-07-10T01:28:16.181Z,100716.25
2023-07-10T01:33:32.654Z,100727.47
2023-07-10T01:39:22.730Z,100725.94
2023-07-10T01:44:24.907Z,100724.00
2023-07-10T01:49:35.926Z,100732.56
2023-07-10T01:54:38.519Z,100732.72
2023-07-10T01:59:40.861Z,100735.03
2023-07-10T02:04:43.132Z,100738.00
2023-07-10T02:09:45.343Z,100735.53
2023-07-10T02:14:47.634Z,100733.56
2023-07-10T02:19:49.810Z,100735.37
2023-07-10T02:24:52.068Z,100735.03
2023-07-10T02:29:54.319Z,100731.09
2023-07-10T02:34:56.472Z,100728.78
2023-07-10T02:39:58.814Z,100729.75
2023-07-10T02:45:01.016Z,100740.22
2023-07-10T02:50:03.206Z,100734.00
2023-07-10T02:55:05.667Z,100741.41
2023-07-10T03:00:08.587Z,100733.16
2023-07-10T03:05:11.289Z,100737.72
2023-07-10T03:10:13.632Z,100739.38
2023-07-10T03:15:15.929Z,100738.44
2023-07-10T03:20:18.313Z,100744.50
2023-07-10T03:25:20.499Z,100728.63
2023-07-10T03:30:22.699Z,100736.81
2023-07-10T03:35:24.879Z,100730.44
2023-07-10T03:40:28.390Z,100737.16
2023-07-10T03:45:32.262Z,100724.22
2023-07-10T03:50:38.053Z,100726.66
2023-07-10T03:55:49.146Z,100724.38
2023-07-10T04:00:52.326Z,100721.25
2023-07-10T04:05:56.489Z,100728.97
2023-07-10T04:11:01.292Z,100725.22
2023-07-10T04:16:06.623Z,100731.75
2023-07-10T04:21:19.379Z,100728.94
2023-07-10T04:26:24.748Z,100731.03
2023-07-10T04:31:27.533Z,100735.97
2023-07-10T04:36:29.919Z,100728.37
2023-07-10T04:41:32.293Z,100727.03
2023-07-10T04:46:35.363Z,100738.44
2023-07-10T04:51:37.788Z,100732.47
2023-07-10T04:56:40.259Z,100726.66
2023-07-10T05:01:42.521Z,100733.44
2023-07-10T05:06:44.749Z,100736.78
2023-07-10T05:11:47.001Z,100737.34
2023-07-10T05:16:49.314Z,100742.66
2023-07-10T05:21:51.684Z,100741.13
2023-07-10T05:26:54.031Z,100747.44
2023-07-10T05:31:58.056Z,100736.09
2023-07-10T05:37:00.466Z,100746.31
2023-07-10T05:42:02.773Z,100745.19
2023-07-10T05:47:05.495Z,100747.47
2023-07-10T05:52:08.007Z,100754.94
2023-07-10T05:57:10.579Z,100749.72
2023-07-10T06:02:12.906Z,100747.94
2023-07-10T06:07:15.203Z,100750.03
2023-07-10T06:12:17.448Z,100753.59
2023-07-10T06:17:19.738Z,100738.50
2023-07-10T06:22:21.916Z,100734.47
2023-07-10T06:27:24.453Z,100726.72
2023-07-10T06:32:27.087Z,100726.91
2023-07-10T06:37:29.326Z,100729.56
2023-07-10T06:42:31.489Z,100731.69
2023-07-10T06:47:39.248Z,100720.75
2023-07-10T06:52:43.677Z,100726.06
2023-07-10T06:57:46.154Z,100722.50
2023-07-10T07:02:48.486Z,100721.25
2023-07-10T07:07:50.838Z,100718.25
2023-07-10T07:12:53.056Z,100710.03
2023-07-10T07:17:55.340Z,100712.00
2023-07-10T07:22:58.386Z,100697.19
2023-07-10T07:28:00.804Z,100703.25
2023-07-10T07:33:03.249Z,100696.69
2023-07-10T07:38:05.462Z,100686.41
2023-07-10T07:43:07.690Z,100697.59
2023-07-10T07:48:09.906Z,100684.13
2023-07-10T07:53:12.145Z,100683.53
2023-07-10T07:58:14.306Z,100690.06
2023-07-10T08:03:17.162Z,100683.84
2023-07-10T08:08:20.011Z,100678.78
2023-07-10T08:13:22.343Z,100658.22
2023-07-10T08:18:24.588Z,100656.84
2023-07-10T08:23:26.773Z,100654.34
2023-07-10T08:28:29.384Z,100663.25
2023-07-10T08:33:31.672Z,100645.94
2023-07-10T08:38:35.977Z,100652.06
2023-07-10T08:43:46.322Z,100643.75
2023-07-10T08:49:06.922Z,100644.41
2023-07-10T08:54:19.830Z,100629.84
2023-07-10T08:59:28.206Z,100639.31
2023-07-10T09:04:32.003Z,100627.59
2023-07-10T09:09:45.209Z,100631.41
2023-07-10T09:14:53.193Z,100620.81
2023-07-10T09:19:58.282Z,100637.37
2023-07-10T09:25:00.763Z,100628.25
2023-07-10T09:30:03.170Z,100629.87
2023-07-10T09:35:05.992Z,100618.12
2023-07-10T09:40:40.257Z,100610.28
2023-07-10T09:45:53.956Z,100591.03
2023-07-10T09:50:57.469Z,100593.69
2023-07-10T09:56:00.672Z,100583.47
2023-07-10T10:01:05.903Z,100589.37
2023-07-10T10:06:20.479Z,100584.56
2023-07-10T10:11:42.406Z,100581.09
2023-07-10T10:16:57.084Z,100563.63
2023-07-10T10:22:02.172Z,100561.44
2023-07-10T10:27:38.472Z,100555.06
2023-07-10T10:33:10.772Z,100556.94
2023-07-10T10:38:36.884Z,100552.72
2023-07-10T10:43:47.486Z,100547.69
2023-07-10T10:49:04.768Z,100541.69
2023-07-10T10:54:33.579Z,100539.59
2023-07-10T11:00:35.430Z,100532.09
2023-07-10T11:05:49.094Z,100524.69
2023-07-10T11:10:53.987Z,100528.81
2023-07-10T11:15:57.118Z,100516.41
2023-07-10T11:21:02.877Z,100505.28
2023-07-10T11:26:22.362Z,100510.19
2023-07-10T11:31:33.447Z,100499.00
2023-07-10T11:36:35.676Z,100516.25
2023-07-10T11:41:43.877Z,100497.16
2023-07-10T11:47:02.147Z,100483.69
2023-07-10T11:52:14.866Z,100478.88
2023-07-10T11:57:20.503Z,100471.81
2023-07-10T12:02:39.875Z,100466.19
2023-07-10T12:08:24.776Z,100454.84
2023-07-10T12:13:31.679Z,100468.13
2023-07-10T12:18:37.813Z,100457.19
2023-07-10T12:24:02.241Z,100469.56
2023-07-10T12:29:05.908Z,100451.94
2023-07-10T12:34:30.246Z,100443.69
2023-07-10T12:39:33.226Z,100453.94
2023-07-10T12:44:44.690Z,100454.59
2023-07-10T12:49:52.320Z,100448.13
2023-07-10T12:54:55.855Z,100469.12
2023-07-10T13:00:08.458Z,100457.22
2023-07-10T13:05:36.206Z,100458.06
2023-07-10T13:10:44.444Z,100451.78
2023-07-10T13:15:47.670Z,100447.91
2023-07-10T13:20:50.041Z,100444.34
2023-07-10T13:25:54.042Z,100439.09
2023-07-10T13:30:56.366Z,100443.56
2023-07-10T13:36:15.053Z,100433.37
2023-07-10T13:41:19.290Z,100426.66
2023-07-10T13:46:31.278Z,100421.31
2023-07-10T13:51:42.241Z,100421.38
2023-07-10T13:56:48.469Z,100423.37
2023-07-10T14:01:52.365Z,100415.03
2023-07-10T14:06:55.001Z,100408.59
2023-07-10T14:11:58.210Z,100400.75
2023-07-10T14:17:00.403Z,100393.88
2023-07-10T14:22:02.614Z,100393.28
2023-07-10T14:27:18.955Z,100385.78
2023-07-10T14:32:23.328Z,100392.78
2023-07-10T14:37:29.328Z,100393.69
2023-07-10T14:42:31.532Z,100386.03
2023-07-10T14:47:36.376Z,100383.19
2023-07-10T14:52:42.402Z,100380.59
2023-07-10T14:57:44.846Z,100393.72
2023-07-10T15:02:47.349Z,100383.47
2023-07-10T15:07:50.996Z,100381.84
2023-07-10T15:12:54.311Z,100376.41
2023-07-10T15:17:57.069Z,100378.88
2023-07-10T15:22:59.313Z,100383.06
2023-07-10T15:28:01.520Z,100394.44
2023-07-10T15:33:04.213Z,100384.84
2023-07-10T15:38:06.985Z,100396.06
2023-07-10T15:43:20.181Z,100384.47
2023-07-10T15:48:25.955Z,100398.88
2023-07-10T15:53:30.929Z,100399.66
2023-07-10T15:58:33.153Z,100391.59
2023-07-10T16:03:35.826Z,100395.72
2023-07-10T16:08:39.832Z,100393.09
2023-07-10T16:13:43.510Z,100376.41
2023-07-10T16:18:45.825Z,100362.22
2023-07-10T16:23:48.451Z,100354.78
2023-07-10T16:28:51.383Z,100341.56
2023-07-10T16:33:53.812Z,100341.91
2023-07-10T16:38:56.556Z,100343.25
2023-07-10T16:43:58.830Z,100333.62
2023-07-10T16:49:01.042Z,100330.03
2023-07-10T16:54:04.392Z,100333.97
2023-07-10T16:59:06.590Z,100360.28
2023-07-10T17:04:10.176Z,100359.41
2023-07-10T17:09:12.596Z,100365.00
2023-07-10T17:14:16.332Z,100366.09
2023-07-10T17:19:18.876Z,100383.00
2023-07-10T17:24:22.347Z,100391.81
2023-07-10T17:29:24.902Z,100387.09
2023-07-10T17:34:27.138Z,100409.91
2023-07-10T17:39:30.164Z,100446.97
2023-07-10T17:44:34.686Z,100470.97
2023-07-10T17:49:40.761Z,100497.47
2023-07-10T17:54:45.730Z,100486.06
2023-07-10T17:59:48.702Z,100471.50
2023-07-10T18:04:52.757Z,100466.16
2023-07-10T18:09:55.076Z,100465.75
2023-07-10T18:14:57.375Z,100476.16
2023-07-10T18:19:59.592Z,100450.69
2023-07-10T18:25:01.857Z,100421.69
2023-07-10T18:30:04.619Z,100466.16
2023-07-10T18:35:07.490Z,100512.66
2023-07-10T18:40:10.718Z,100508.47
2023-07-10T18:45:20.218Z,100498.97
2023-07-10T18:50:25.603Z,100488.00
2023-07-10T18:55:28.288Z,100487.47
2023-07-10T19:00:30.523Z,100487.25
2023-07-10T19:05:32.742Z,100502.97
2023-07-10T19:10:34.987Z,100489.72
2023-07-10T19:15:37.281Z,100493.81
2023-07-10T19:20:39.471Z,100516.25
2023-07-10T19:25:42.069Z,100526.66
2023-07-10T19:31:00.324Z,100549.13
2023-07-10T19:36:03.646Z,100586.16
2023-07-10T19:41:06.250Z,100579.50
2023-07-10T19:46:22.129Z,100575.53
2023-07-10T19:51:24.363Z,100572.41
2023-07-10T19:56:26.716Z,100563.06
2023-07-10T20:01:29.020Z,100540.28
2023-07-10T20:06:32.142Z,100535.78
2023-07-10T20:11:34.417Z,100529.25
2023-07-10T20:16:36.643Z,100510.28
2023-07-10T20:21:38.841Z,100519.47
2023-07-10T20:26:42.053Z,100500.75
2023-07-10T20:31:45.964Z,100491.91
2023-07-10T20:36:50.828Z,100507.63
2023-07-10T20:41:56.903Z,100506.13
2023-07-10T20:46:59.400Z,100496.69
2023-07-10T20:52:01.911Z,100502.91
2023-07-10T20:57:04.882Z,100477.72
2023-07-10T21:02:19.479Z,100480.81
2023-07-10T21:07:22.058Z,100494.22
2023-07-10T21:12:24.697Z,100483.34
2023-07-10T21:17:30.458Z,100477.50
2023-07-10T21:22:32.804Z,100462.53
2023-07-10T21:27:35.090Z,100455.06
2023-07-10T21:32:37.307Z,100441.47
2023-07-10T21:37:39.506Z,100438.09
2023-07-10T21:42:41.683Z,100443.56
2023-07-10T21:47:43.907Z,100431.59
2023-07-10T21:52:46.146Z,100443.41
2023-07-10T21:57:48.419Z,100450.25
2023-07-10T22:02:50.814Z,100463.69
2023-07-10T22:07:53.113Z,100449.53
2023-07-10T22:13:06.485Z,100452.91
2023-07-10T22:18:16.743Z,100445.50
2023-07-10T22:23:20.621Z,100449.44
2023-07-10T22:28:28.565Z,100454.78
2023-07-10T22:33:38.123Z,100463.47
2023-07-10T22:38:40.584Z,100455.78
2023-07-10T22:44:04.814Z,100461.31
2023-07-10T22:49:10.218Z,100466.47
2023-07-10T22:54:12.431Z,100468.63
2023-07-10T22:59:17.738Z,100442.56
2023-07-10T23:04:19.921Z,100430.81
2023-07-10T23:09:22.196Z,100442.03
2023-07-10T23:14:24.381Z,100446.75
2023-07-10T23:19:26.630Z,100439.22
2023-07-10T23:24:29.686Z,100437.97
2023-07-10T23:29:31.886Z,100435.69
2023-07-10T23:34:34.266Z,100444.59
2023-07-10T23:39:37.639Z,100442.22
2023-07-10T23:44:39.851Z,100442.50
2023-07-10T23:49:42.086Z,100443.97
2023-07-10T23:54:44.291Z,100437.53
2023-07-10T23:59:46.433Z,100437.53
